sensor_id;sensor_type;location;lat;lon;timestamp;temperature;humidity
46932;DHT22;32670;51.464;11.964;2022-11-20T00:03:32;23.30;43.90
46932;DHT22;32670;51.464;11.964;2022-11-20T00:06:05;23.30;43.90
46932;DHT22;32670;51.464;11.964;2022-11-20T00:08:31;23.30;43.80
46932;DHT22;32670;51.464;11.964;2022-11-20T00:10:57;23.30;43.80
46932;DHT22;32670;51.464;11.964;2022-11-20T00:13:22;23.30;44.20
46932;DHT22;32670;51.464;11.964;2022-11-20T00:15:48;23.30;43.70
46932;DHT22;32670;51.464;11.964;2022-11-20T00:18:13;23.30;43.60
46932;DHT22;32670;51.464;11.964;2022-11-20T00:20:39;23.30;43.50
46932;DHT22;32670;51.464;11.964;2022-11-20T00:23:04;23.30;43.50
46932;DHT22;32670;51.464;11.964;2022-11-20T00:25:31;23.30;43.60
46932;DHT22;32670;51.464;11.964;2022-11-20T00:27:58;23.30;43.50
46932;DHT22;32670;51.464;11.964;2022-11-20T00:30:24;23.30;43.50
46932;DHT22;32670;51.464;11.964;2022-11-20T00:32:49;23.30;43.50
46932;DHT22;32670;51.464;11.964;2022-11-20T00:35:15;23.30;44.10
46932;DHT22;32670;51.464;11.964;2022-11-20T00:37:40;23.30;43.50
46932;DHT22;32670;51.464;11.964;2022-11-20T00:40:06;23.30;43.60
46932;DHT22;32670;51.464;11.964;2022-11-20T00:42:32;23.30;43.50
46932;DHT22;32670;51.464;11.964;2022-11-20T00:44:58;23.30;44.10
46932;DHT22;32670;51.464;11.964;2022-11-20T00:47:23;23.30;43.40
46932;DHT22;32670;51.464;11.964;2022-11-20T00:49:49;23.30;43.40
46932;DHT22;32670;51.464;11.964;2022-11-20T00:52:14;23.30;43.40
46932;DHT22;32670;51.464;11.964;2022-11-20T00:54:40;23.30;43.40
46932;DHT22;32670;51.464;11.964;2022-11-20T00:57:05;23.30;43.40
46932;DHT22;32670;51.464;11.964;2022-11-20T00:59:31;23.30;43.40
46932;DHT22;32670;51.464;11.964;2022-11-20T01:01:56;23.30;43.30
46932;DHT22;32670;51.464;11.964;2022-11-20T01:04:21;23.20;43.20
46932;DHT22;32670;51.464;11.964;2022-11-20T01:06:47;23.30;43.30
46932;DHT22;32670;51.464;11.964;2022-11-20T01:09:13;23.20;43.20
46932;DHT22;32670;51.464;11.964;2022-11-20T01:11:43;23.30;43.20
46932;DHT22;32670;51.464;11.964;2022-11-20T01:14:12;23.30;43.20
46932;DHT22;32670;51.464;11.964;2022-11-20T01:16:49;23.20;43.10
46932;DHT22;32670;51.464;11.964;2022-11-20T01:19:18;23.30;43.10
46932;DHT22;32670;51.464;11.964;2022-11-20T01:21:44;23.30;43.10
46932;DHT22;32670;51.464;11.964;2022-11-20T01:24:12;23.20;43.10
46932;DHT22;32670;51.464;11.964;2022-11-20T01:26:40;23.30;43.10
46932;DHT22;32670;51.464;11.964;2022-11-20T01:29:14;23.20;43.00
46932;DHT22;32670;51.464;11.964;2022-11-20T01:31:40;23.20;43.10
46932;DHT22;32670;51.464;11.964;2022-11-20T01:34:09;23.30;43.10
46932;DHT22;32670;51.464;11.964;2022-11-20T01:36:36;23.20;43.00
46932;DHT22;32670;51.464;11.964;2022-11-20T01:39:05;23.30;43.10
46932;DHT22;32670;51.464;11.964;2022-11-20T01:41:32;23.30;43.10
46932;DHT22;32670;51.464;11.964;2022-11-20T01:44:21;23.30;43.10
46932;DHT22;32670;51.464;11.964;2022-11-20T01:47:01;23.20;43.00
46932;DHT22;32670;51.464;11.964;2022-11-20T01:49:37;23.20;43.00
46932;DHT22;32670;51.464;11.964;2022-11-20T01:52:11;23.20;43.00
46932;DHT22;32670;51.464;11.964;2022-11-20T01:54:52;23.30;43.00
46932;DHT22;32670;51.464;11.964;2022-11-20T01:57:21;23.30;43.00
46932;DHT22;32670;51.464;11.964;2022-11-20T01:59:57;23.30;43.00
46932;DHT22;32670;51.464;11.964;2022-11-20T02:02:25;23.30;43.00
46932;DHT22;32670;51.464;11.964;2022-11-20T02:04:54;23.30;42.90
46932;DHT22;32670;51.464;11.964;2022-11-20T02:07:23;23.30;42.90
46932;DHT22;32670;51.464;11.964;2022-11-20T02:09:50;23.20;42.80
46932;DHT22;32670;51.464;11.964;2022-11-20T02:12:15;23.30;42.90
46932;DHT22;32670;51.464;11.964;2022-11-20T02:14:59;23.20;42.80
46932;DHT22;32670;51.464;11.964;2022-11-20T02:17:25;23.30;42.80
46932;DHT22;32670;51.464;11.964;2022-11-20T02:19:51;23.30;42.80
46932;DHT22;32670;51.464;11.964;2022-11-20T02:22:28;23.20;42.70
46932;DHT22;32670;51.464;11.964;2022-11-20T02:24:58;23.20;42.70
46932;DHT22;32670;51.464;11.964;2022-11-20T02:27:26;23.20;42.70
46932;DHT22;32670;51.464;11.964;2022-11-20T02:29:56;23.20;42.70
46932;DHT22;32670;51.464;11.964;2022-11-20T02:32:32;23.20;42.70
46932;DHT22;32670;51.464;11.964;2022-11-20T02:34:57;23.20;42.60
46932;DHT22;32670;51.464;11.964;2022-11-20T02:37:29;23.20;42.60
46932;DHT22;32670;51.464;11.964;2022-11-20T02:39:55;23.20;42.60
46932;DHT22;32670;51.464;11.964;2022-11-20T02:42:21;23.20;42.60
46932;DHT22;32670;51.464;11.964;2022-11-20T02:44:46;23.20;42.50
46932;DHT22;32670;51.464;11.964;2022-11-20T02:47:12;23.20;42.50
46932;DHT22;32670;51.464;11.964;2022-11-20T02:49:43;23.20;42.50
46932;DHT22;32670;51.464;11.964;2022-11-20T02:52:09;23.20;42.50
46932;DHT22;32670;51.464;11.964;2022-11-20T02:54:34;23.20;42.50
46932;DHT22;32670;51.464;11.964;2022-11-20T02:57:00;23.20;42.50
46932;DHT22;32670;51.464;11.964;2022-11-20T02:59:25;23.20;42.50
46932;DHT22;32670;51.464;11.964;2022-11-20T03:01:51;23.20;42.50
46932;DHT22;32670;51.464;11.964;2022-11-20T03:04:16;23.20;42.50
46932;DHT22;32670;51.464;11.964;2022-11-20T03:06:42;23.20;42.40
46932;DHT22;32670;51.464;11.964;2022-11-20T03:09:07;23.20;42.40
46932;DHT22;32670;51.464;11.964;2022-11-20T03:11:33;23.30;42.50
46932;DHT22;32670;51.464;11.964;2022-11-20T03:14:02;23.20;42.40
46932;DHT22;32670;51.464;11.964;2022-11-20T03:16:28;23.20;42.40
46932;DHT22;32670;51.464;11.964;2022-11-20T03:18:53;23.20;42.40
46932;DHT22;32670;51.464;11.964;2022-11-20T03:21:19;23.20;42.30
46932;DHT22;32670;51.464;11.964;2022-11-20T03:23:44;23.30;42.40
46932;DHT22;32670;51.464;11.964;2022-11-20T03:26:15;23.30;42.30
46932;DHT22;32670;51.464;11.964;2022-11-20T03:28:42;23.30;42.30
46932;DHT22;32670;51.464;11.964;2022-11-20T03:31:13;23.20;42.30
46932;DHT22;32670;51.464;11.964;2022-11-20T03:33:40;23.30;42.30
46932;DHT22;32670;51.464;11.964;2022-11-20T03:36:09;23.20;42.80
46932;DHT22;32670;51.464;11.964;2022-11-20T03:38:36;23.30;42.30
46932;DHT22;32670;51.464;11.964;2022-11-20T03:41:07;23.20;42.20
46932;DHT22;32670;51.464;11.964;2022-11-20T03:43:33;23.20;42.20
46932;DHT22;32670;51.464;11.964;2022-11-20T03:45:59;23.30;42.20
46932;DHT22;32670;51.464;11.964;2022-11-20T03:48:25;23.30;42.20
46932;DHT22;32670;51.464;11.964;2022-11-20T03:50:52;23.20;42.10
46932;DHT22;32670;51.464;11.964;2022-11-20T03:53:18;23.30;42.20
46932;DHT22;32670;51.464;11.964;2022-11-20T03:55:43;23.30;42.20
46932;DHT22;32670;51.464;11.964;2022-11-20T03:58:09;23.20;42.10
46932;DHT22;32670;51.464;11.964;2022-11-20T04:00:35;23.20;42.10
46932;DHT22;32670;51.464;11.964;2022-11-20T04:03:01;23.30;42.10
46932;DHT22;32670;51.464;11.964;2022-11-20T04:05:27;23.30;42.10
46932;DHT22;32670;51.464;11.964;2022-11-20T04:07:52;23.20;42.00
46932;DHT22;32670;51.464;11.964;2022-11-20T04:10:18;23.20;42.00
46932;DHT22;32670;51.464;11.964;2022-11-20T04:12:43;23.20;42.00
46932;DHT22;32670;51.464;11.964;2022-11-20T04:15:09;23.20;41.90
46932;DHT22;32670;51.464;11.964;2022-11-20T04:17:34;23.20;41.90
46932;DHT22;32670;51.464;11.964;2022-11-20T04:20:00;23.20;41.90
46932;DHT22;32670;51.464;11.964;2022-11-20T04:22:26;23.20;41.90
46932;DHT22;32670;51.464;11.964;2022-11-20T04:24:51;23.20;41.90
46932;DHT22;32670;51.464;11.964;2022-11-20T04:27:17;23.20;41.90
46932;DHT22;32670;51.464;11.964;2022-11-20T04:29:42;23.20;41.90
46932;DHT22;32670;51.464;11.964;2022-11-20T04:32:08;23.20;41.90
46932;DHT22;32670;51.464;11.964;2022-11-20T04:34:34;23.20;41.90
46932;DHT22;32670;51.464;11.964;2022-11-20T04:37:00;23.20;41.90
46932;DHT22;32670;51.464;11.964;2022-11-20T04:39:26;23.20;41.80
46932;DHT22;32670;51.464;11.964;2022-11-20T04:41:51;23.20;41.90
46932;DHT22;32670;51.464;11.964;2022-11-20T04:44:37;23.20;41.90
46932;DHT22;32670;51.464;11.964;2022-11-20T04:47:02;23.30;41.90
46932;DHT22;32670;51.464;11.964;2022-11-20T04:49:28;23.20;41.80
46932;DHT22;32670;51.464;11.964;2022-11-20T04:51:53;23.30;41.80
46932;DHT22;32670;51.464;11.964;2022-11-20T04:54:19;23.20;41.80
46932;DHT22;32670;51.464;11.964;2022-11-20T04:56:47;23.30;42.00
46932;DHT22;32670;51.464;11.964;2022-11-20T04:59:13;23.20;41.90
46932;DHT22;32670;51.464;11.964;2022-11-20T05:01:39;23.30;41.90
46932;DHT22;32670;51.464;11.964;2022-11-20T05:04:05;23.30;41.90
46932;DHT22;32670;51.464;11.964;2022-11-20T05:06:31;23.30;41.90
46932;DHT22;32670;51.464;11.964;2022-11-20T05:08:57;23.20;41.80
46932;DHT22;32670;51.464;11.964;2022-11-20T05:11:23;23.30;41.80
46932;DHT22;32670;51.464;11.964;2022-11-20T05:13:50;23.30;41.90
46932;DHT22;32670;51.464;11.964;2022-11-20T05:16:22;23.30;41.90
46932;DHT22;32670;51.464;11.964;2022-11-20T05:18:48;23.30;41.80
46932;DHT22;32670;51.464;11.964;2022-11-20T05:21:15;23.30;41.80
46932;DHT22;32670;51.464;11.964;2022-11-20T05:23:41;23.20;41.70
46932;DHT22;32670;51.464;11.964;2022-11-20T05:26:11;23.30;41.80
46932;DHT22;32670;51.464;11.964;2022-11-20T05:28:37;23.30;41.70
46932;DHT22;32670;51.464;11.964;2022-11-20T05:31:09;23.30;41.70
46932;DHT22;32670;51.464;11.964;2022-11-20T05:33:35;23.30;41.70
46932;DHT22;32670;51.464;11.964;2022-11-20T05:36:03;23.30;41.70
46932;DHT22;32670;51.464;11.964;2022-11-20T05:38:29;23.30;41.70
46932;DHT22;32670;51.464;11.964;2022-11-20T05:40:54;23.20;41.50
46932;DHT22;32670;51.464;11.964;2022-11-20T05:43:20;23.30;41.60
46932;DHT22;32670;51.464;11.964;2022-11-20T05:45:54;23.30;41.70
46932;DHT22;32670;51.464;11.964;2022-11-20T05:48:20;23.20;41.60
46932;DHT22;32670;51.464;11.964;2022-11-20T05:50:47;23.30;41.70
46932;DHT22;32670;51.464;11.964;2022-11-20T05:53:13;23.30;41.70
46932;DHT22;32670;51.464;11.964;2022-11-20T05:55:38;23.30;41.80
46932;DHT22;32670;51.464;11.964;2022-11-20T05:58:04;23.20;41.80
46932;DHT22;32670;51.464;11.964;2022-11-20T06:00:29;23.20;41.80
46932;DHT22;32670;51.464;11.964;2022-11-20T06:02:55;23.20;41.90
46932;DHT22;32670;51.464;11.964;2022-11-20T06:05:20;23.20;41.90
46932;DHT22;32670;51.464;11.964;2022-11-20T06:07:46;23.30;42.00
46932;DHT22;32670;51.464;11.964;2022-11-20T06:10:11;23.20;41.90
46932;DHT22;32670;51.464;11.964;2022-11-20T06:12:37;23.20;41.90
46932;DHT22;32670;51.464;11.964;2022-11-20T06:15:03;23.20;41.80
46932;DHT22;32670;51.464;11.964;2022-11-20T06:17:29;23.30;41.90
46932;DHT22;32670;51.464;11.964;2022-11-20T06:19:55;23.20;41.90
46932;DHT22;32670;51.464;11.964;2022-11-20T06:22:21;23.20;41.90
46932;DHT22;32670;51.464;11.964;2022-11-20T06:24:47;23.20;42.00
46932;DHT22;32670;51.464;11.964;2022-11-20T06:27:12;23.20;42.00
46932;DHT22;32670;51.464;11.964;2022-11-20T06:29:38;23.20;42.00
46932;DHT22;32670;51.464;11.964;2022-11-20T06:32:03;23.20;42.00
46932;DHT22;32670;51.464;11.964;2022-11-20T06:34:29;23.20;42.00
46932;DHT22;32670;51.464;11.964;2022-11-20T06:36:54;23.20;42.00
46932;DHT22;32670;51.464;11.964;2022-11-20T06:39:20;23.20;42.00
46932;DHT22;32670;51.464;11.964;2022-11-20T06:41:45;23.20;42.00
46932;DHT22;32670;51.464;11.964;2022-11-20T06:44:11;23.20;41.90
46932;DHT22;32670;51.464;11.964;2022-11-20T06:46:36;23.20;42.00
46932;DHT22;32670;51.464;11.964;2022-11-20T06:49:02;23.20;42.00
46932;DHT22;32670;51.464;11.964;2022-11-20T06:51:27;23.20;42.00
46932;DHT22;32670;51.464;11.964;2022-11-20T06:53:53;23.20;42.00
46932;DHT22;32670;51.464;11.964;2022-11-20T06:56:19;23.10;42.00
46932;DHT22;32670;51.464;11.964;2022-11-20T06:58:45;23.20;42.10
46932;DHT22;32670;51.464;11.964;2022-11-20T07:01:13;23.20;42.00
46932;DHT22;32670;51.464;11.964;2022-11-20T07:03:39;23.20;42.00
46932;DHT22;32670;51.464;11.964;2022-11-20T07:06:05;23.30;42.10
46932;DHT22;32670;51.464;11.964;2022-11-20T07:08:31;23.30;42.00
46932;DHT22;32670;51.464;11.964;2022-11-20T07:10:58;23.30;42.00
46932;DHT22;32670;51.464;11.964;2022-11-20T07:13:26;23.30;42.00
46932;DHT22;32670;51.464;11.964;2022-11-20T07:15:51;23.40;42.10
46932;DHT22;32670;51.464;11.964;2022-11-20T07:18:17;23.40;42.00
46932;DHT22;32670;51.464;11.964;2022-11-20T07:20:42;23.40;41.90
46932;DHT22;32670;51.464;11.964;2022-11-20T07:23:08;23.50;39.40
46932;DHT22;32670;51.464;11.964;2022-11-20T07:25:33;23.20;24.70
46932;DHT22;32670;51.464;11.964;2022-11-20T07:27:59;23.20;33.50
46932;DHT22;32670;51.464;11.964;2022-11-20T07:30:27;23.30;36.60
46932;DHT22;32670;51.464;11.964;2022-11-20T07:32:54;23.40;35.00
46932;DHT22;32670;51.464;11.964;2022-11-20T07:35:20;23.50;34.70
46932;DHT22;32670;51.464;11.964;2022-11-20T07:37:45;23.60;35.20
46932;DHT22;32670;51.464;11.964;2022-11-20T07:40:12;23.70;35.40
46932;DHT22;32670;51.464;11.964;2022-11-20T07:42:38;23.80;35.70
46932;DHT22;32670;51.464;11.964;2022-11-20T07:45:04;23.80;36.00
46932;DHT22;32670;51.464;11.964;2022-11-20T07:47:35;23.90;36.10
46932;DHT22;32670;51.464;11.964;2022-11-20T07:50:01;23.90;36.20
46932;DHT22;32670;51.464;11.964;2022-11-20T07:52:27;24.00;36.50
46932;DHT22;32670;51.464;11.964;2022-11-20T07:54:52;24.00;36.60
46932;DHT22;32670;51.464;11.964;2022-11-20T07:57:18;24.00;36.70
46932;DHT22;32670;51.464;11.964;2022-11-20T07:59:43;24.10;36.90
46932;DHT22;32670;51.464;11.964;2022-11-20T08:02:10;24.20;37.20
46932;DHT22;32670;51.464;11.964;2022-11-20T08:04:36;24.20;37.30
46932;DHT22;32670;51.464;11.964;2022-11-20T08:07:02;24.10;37.50
46932;DHT22;32670;51.464;11.964;2022-11-20T08:09:27;24.10;37.50
46932;DHT22;32670;51.464;11.964;2022-11-20T08:11:54;24.10;37.70
46932;DHT22;32670;51.464;11.964;2022-11-20T08:14:38;24.10;37.80
46932;DHT22;32670;51.464;11.964;2022-11-20T08:17:03;24.00;37.90
46932;DHT22;32670;51.464;11.964;2022-11-20T08:19:29;24.00;38.70
46932;DHT22;32670;51.464;11.964;2022-11-20T08:21:55;24.00;39.30
46932;DHT22;32670;51.464;11.964;2022-11-20T08:24:20;24.00;39.50
46932;DHT22;32670;51.464;11.964;2022-11-20T08:26:46;24.00;39.60
46932;DHT22;32670;51.464;11.964;2022-11-20T08:29:12;24.00;39.60
46932;DHT22;32670;51.464;11.964;2022-11-20T08:31:37;24.00;38.30
46932;DHT22;32670;51.464;11.964;2022-11-20T08:34:03;24.00;35.80
46932;DHT22;32670;51.464;11.964;2022-11-20T08:36:28;24.00;35.70
46932;DHT22;32670;51.464;11.964;2022-11-20T08:38:55;24.00;36.70
46932;DHT22;32670;51.464;11.964;2022-11-20T08:41:21;24.00;37.10
46932;DHT22;32670;51.464;11.964;2022-11-20T08:43:59;24.00;37.40
46932;DHT22;32670;51.464;11.964;2022-11-20T08:46:26;24.00;37.40
46932;DHT22;32670;51.464;11.964;2022-11-20T08:48:52;24.00;37.60
46932;DHT22;32670;51.464;11.964;2022-11-20T08:51:18;24.10;37.90
46932;DHT22;32670;51.464;11.964;2022-11-20T08:53:44;24.00;38.00
46932;DHT22;32670;51.464;11.964;2022-11-20T08:56:10;24.00;38.30
46932;DHT22;32670;51.464;11.964;2022-11-20T08:58:37;24.10;38.40
46932;DHT22;32670;51.464;11.964;2022-11-20T09:01:02;24.10;38.40
46932;DHT22;32670;51.464;11.964;2022-11-20T09:03:28;24.10;38.50
46932;DHT22;32670;51.464;11.964;2022-11-20T09:06:01;24.10;38.70
46932;DHT22;32670;51.464;11.964;2022-11-20T09:08:28;24.20;38.80
46932;DHT22;32670;51.464;11.964;2022-11-20T09:10:55;24.10;38.70
46932;DHT22;32670;51.464;11.964;2022-11-20T09:13:21;24.20;38.90
46932;DHT22;32670;51.464;11.964;2022-11-20T09:15:52;24.20;39.00
46932;DHT22;32670;51.464;11.964;2022-11-20T09:18:17;24.20;38.90
46932;DHT22;32670;51.464;11.964;2022-11-20T09:20:43;24.20;38.80
46932;DHT22;32670;51.464;11.964;2022-11-20T09:23:09;24.20;39.20
46932;DHT22;32670;51.464;11.964;2022-11-20T09:25:34;24.20;38.70
46932;DHT22;32670;51.464;11.964;2022-11-20T09:28:00;24.20;38.70
46932;DHT22;32670;51.464;11.964;2022-11-20T09:30:26;24.20;38.80
46932;DHT22;32670;51.464;11.964;2022-11-20T09:32:51;24.30;38.90
46932;DHT22;32670;51.464;11.964;2022-11-20T09:35:17;24.30;40.00
46932;DHT22;32670;51.464;11.964;2022-11-20T09:37:43;24.30;40.90
46932;DHT22;32670;51.464;11.964;2022-11-20T09:40:24;24.30;42.00
46932;DHT22;32670;51.464;11.964;2022-11-20T09:43:20;24.30;42.90
46932;DHT22;32670;51.464;11.964;2022-11-20T09:51:25;24.40;44.10
46932;DHT22;32670;51.464;11.964;2022-11-20T09:56:21;24.40;44.70
46932;DHT22;32670;51.464;11.964;2022-11-20T09:58:52;24.40;45.40
46932;DHT22;32670;51.464;11.964;2022-11-20T10:01:21;24.40;44.30
46932;DHT22;32670;51.464;11.964;2022-11-20T10:07:00;24.40;43.10
46932;DHT22;32670;51.464;11.964;2022-11-20T10:14:50;24.30;38.50
46932;DHT22;32670;51.464;11.964;2022-11-20T10:17:38;24.30;40.40
46932;DHT22;32670;51.464;11.964;2022-11-20T10:20:16;24.30;40.70
46932;DHT22;32670;51.464;11.964;2022-11-20T10:25:20;24.30;41.50
46932;DHT22;32670;51.464;11.964;2022-11-20T10:28:09;24.30;42.00
46932;DHT22;32670;51.464;11.964;2022-11-20T10:30:44;24.40;42.40
46932;DHT22;32670;51.464;11.964;2022-11-20T10:33:17;24.40;40.60
46932;DHT22;32670;51.464;11.964;2022-11-20T10:35:48;24.30;41.20
46932;DHT22;32670;51.464;11.964;2022-11-20T10:38:31;24.40;42.20
46932;DHT22;32670;51.464;11.964;2022-11-20T10:41:02;24.40;41.70
46932;DHT22;32670;51.464;11.964;2022-11-20T10:43:47;24.40;42.60
46932;DHT22;32670;51.464;11.964;2022-11-20T10:46:17;24.40;42.70
46932;DHT22;32670;51.464;11.964;2022-11-20T10:48:45;24.40;43.00
46932;DHT22;32670;51.464;11.964;2022-11-20T10:57:08;24.40;44.10
46932;DHT22;32670;51.464;11.964;2022-11-20T11:00:04;24.50;44.50
46932;DHT22;32670;51.464;11.964;2022-11-20T11:02:39;24.50;44.80
46932;DHT22;32670;51.464;11.964;2022-11-20T11:05:17;24.50;44.80
46932;DHT22;32670;51.464;11.964;2022-11-20T11:07:45;24.50;44.80
46932;DHT22;32670;51.464;11.964;2022-11-20T11:10:22;24.60;43.30
46932;DHT22;32670;51.464;11.964;2022-11-20T11:12:49;24.60;43.60
46932;DHT22;32670;51.464;11.964;2022-11-20T11:15:39;24.60;44.20
46932;DHT22;32670;51.464;11.964;2022-11-20T11:18:07;24.70;44.00
46932;DHT22;32670;51.464;11.964;2022-11-20T11:20:33;24.60;43.70
46932;DHT22;32670;51.464;11.964;2022-11-20T11:22:59;24.60;42.60
46932;DHT22;32670;51.464;11.964;2022-11-20T11:25:36;24.60;40.70
46932;DHT22;32670;51.464;11.964;2022-11-20T11:28:21;24.60;38.70
46932;DHT22;32670;51.464;11.964;2022-11-20T11:30:47;24.60;39.00
46932;DHT22;32670;51.464;11.964;2022-11-20T11:33:23;24.70;39.60
46932;DHT22;32670;51.464;11.964;2022-11-20T11:36:03;24.70;40.40
46932;DHT22;32670;51.464;11.964;2022-11-20T11:41:02;24.70;41.20
46932;DHT22;32670;51.464;11.964;2022-11-20T11:43:31;24.70;41.30
46932;DHT22;32670;51.464;11.964;2022-11-20T11:46:33;24.00;25.60
46932;DHT22;32670;51.464;11.964;2022-11-20T11:49:11;23.70;32.70
46932;DHT22;32670;51.464;11.964;2022-11-20T11:54:38;23.90;33.80
46932;DHT22;32670;51.464;11.964;2022-11-20T11:57:16;24.00;36.30
46932;DHT22;32670;51.464;11.964;2022-11-20T12:00:04;24.10;37.40
46932;DHT22;32670;51.464;11.964;2022-11-20T12:02:35;24.20;38.20
46932;DHT22;32670;51.464;11.964;2022-11-20T12:05:28;24.30;38.90
46932;DHT22;32670;51.464;11.964;2022-11-20T12:10:50;24.40;39.60
46932;DHT22;32670;51.464;11.964;2022-11-20T12:13:39;24.40;39.80
46932;DHT22;32670;51.464;11.964;2022-11-20T12:16:11;24.40;39.90
46932;DHT22;32670;51.464;11.964;2022-11-20T12:18:39;24.50;40.50
46932;DHT22;32670;51.464;11.964;2022-11-20T12:27:04;24.50;41.50
46932;DHT22;32670;51.464;11.964;2022-11-20T12:30:04;24.60;41.80
46932;DHT22;32670;51.464;11.964;2022-11-20T12:36:05;24.60;42.50
46932;DHT22;32670;51.464;11.964;2022-11-20T12:52:53;24.60;39.90
46932;DHT22;32670;51.464;11.964;2022-11-20T13:00:58;24.60;39.40
46932;DHT22;32670;51.464;11.964;2022-11-20T13:03:37;24.60;39.60
46932;DHT22;32670;51.464;11.964;2022-11-20T13:06:16;24.60;39.70
46932;DHT22;32670;51.464;11.964;2022-11-20T13:08:58;24.60;39.70
46932;DHT22;32670;51.464;11.964;2022-11-20T13:11:59;24.60;39.40
46932;DHT22;32670;51.464;11.964;2022-11-20T13:14:41;24.60;39.50
46932;DHT22;32670;51.464;11.964;2022-11-20T13:18:00;24.60;39.50
46932;DHT22;32670;51.464;11.964;2022-11-20T13:20:19;24.60;39.50
46932;DHT22;32670;51.464;11.964;2022-11-20T13:22:49;24.60;39.60
46932;DHT22;32670;51.464;11.964;2022-11-20T13:26:05;24.60;39.60
46932;DHT22;32670;51.464;11.964;2022-11-20T13:28:31;24.60;39.60
46932;DHT22;32670;51.464;11.964;2022-11-20T13:30:58;24.60;39.70
46932;DHT22;32670;51.464;11.964;2022-11-20T13:36:06;24.60;39.80
46932;DHT22;32670;51.464;11.964;2022-11-20T13:38:47;24.60;39.90
46932;DHT22;32670;51.464;11.964;2022-11-20T13:41:33;24.60;40.10
46932;DHT22;32670;51.464;11.964;2022-11-20T13:44:22;24.60;39.90
46932;DHT22;32670;51.464;11.964;2022-11-20T13:46:48;24.60;39.40
46932;DHT22;32670;51.464;11.964;2022-11-20T13:49:39;24.60;39.70
46932;DHT22;32670;51.464;11.964;2022-11-20T13:55:11;24.60;39.70
46932;DHT22;32670;51.464;11.964;2022-11-20T13:58:10;24.60;40.10
46932;DHT22;32670;51.464;11.964;2022-11-20T14:00:58;24.50;40.10
46932;DHT22;32670;51.464;11.964;2022-11-20T14:03:31;24.60;40.30
46932;DHT22;32670;51.464;11.964;2022-11-20T14:06:04;24.50;40.50
46932;DHT22;32670;51.464;11.964;2022-11-20T14:08:36;24.50;40.60
46932;DHT22;32670;51.464;11.964;2022-11-20T14:11:22;24.50;41.00
46932;DHT22;32670;51.464;11.964;2022-11-20T14:14:15;24.50;41.00
46932;DHT22;32670;51.464;11.964;2022-11-20T14:16:41;24.50;40.90
46932;DHT22;32670;51.464;11.964;2022-11-20T14:21:51;24.50;41.00
46932;DHT22;32670;51.464;11.964;2022-11-20T14:24:24;24.50;41.00
46932;DHT22;32670;51.464;11.964;2022-11-20T14:26:50;24.50;41.10
46932;DHT22;32670;51.464;11.964;2022-11-20T14:29:18;24.50;41.10
46932;DHT22;32670;51.464;11.964;2022-11-20T14:31:45;24.50;41.10
46932;DHT22;32670;51.464;11.964;2022-11-20T14:34:20;24.50;41.20
46932;DHT22;32670;51.464;11.964;2022-11-20T14:36:47;24.50;41.20
46932;DHT22;32670;51.464;11.964;2022-11-20T14:39:27;24.40;41.10
46932;DHT22;32670;51.464;11.964;2022-11-20T14:41:55;24.50;41.20
46932;DHT22;32670;51.464;11.964;2022-11-20T14:44:32;24.50;41.20
46932;DHT22;32670;51.464;11.964;2022-11-20T14:47:00;24.40;40.80
46932;DHT22;32670;51.464;11.964;2022-11-20T14:49:26;24.40;40.80
46932;DHT22;32670;51.464;11.964;2022-11-20T14:52:02;24.40;41.00
46932;DHT22;32670;51.464;11.964;2022-11-20T14:54:28;24.40;41.30
46932;DHT22;32670;51.464;11.964;2022-11-20T14:57:00;24.40;41.40
46932;DHT22;32670;51.464;11.964;2022-11-20T14:59:31;24.40;41.50
46932;DHT22;32670;51.464;11.964;2022-11-20T15:02:05;24.40;41.40
46932;DHT22;32670;51.464;11.964;2022-11-20T15:04:31;24.40;41.50
46932;DHT22;32670;51.464;11.964;2022-11-20T15:06:59;24.40;41.60
46932;DHT22;32670;51.464;11.964;2022-11-20T15:09:25;24.40;41.70
46932;DHT22;32670;51.464;11.964;2022-11-20T15:11:59;24.40;41.60
46932;DHT22;32670;51.464;11.964;2022-11-20T15:14:27;24.40;41.60
46932;DHT22;32670;51.464;11.964;2022-11-20T15:16:54;24.40;41.60
46932;DHT22;32670;51.464;11.964;2022-11-20T15:19:25;24.40;41.90
46932;DHT22;32670;51.464;11.964;2022-11-20T15:21:51;24.40;41.70
46932;DHT22;32670;51.464;11.964;2022-11-20T15:24:18;24.40;41.80
46932;DHT22;32670;51.464;11.964;2022-11-20T15:26:44;24.30;41.70
46932;DHT22;32670;51.464;11.964;2022-11-20T15:29:14;24.30;41.60
46932;DHT22;32670;51.464;11.964;2022-11-20T15:31:43;24.30;41.70
46932;DHT22;32670;51.464;11.964;2022-11-20T15:34:11;24.30;41.90
46932;DHT22;32670;51.464;11.964;2022-11-20T15:36:38;24.30;41.80
46932;DHT22;32670;51.464;11.964;2022-11-20T15:39:04;24.30;41.90
46932;DHT22;32670;51.464;11.964;2022-11-20T15:41:29;24.30;42.10
46932;DHT22;32670;51.464;11.964;2022-11-20T15:43:55;24.30;42.00
46932;DHT22;32670;51.464;11.964;2022-11-20T15:46:26;24.30;42.10
46932;DHT22;32670;51.464;11.964;2022-11-20T15:48:55;24.30;42.10
46932;DHT22;32670;51.464;11.964;2022-11-20T15:53:50;24.20;42.20
46932;DHT22;32670;51.464;11.964;2022-11-20T15:56:15;24.20;42.00
46932;DHT22;32670;51.464;11.964;2022-11-20T15:58:41;24.20;42.10
46932;DHT22;32670;51.464;11.964;2022-11-20T16:01:11;24.20;42.00
46932;DHT22;32670;51.464;11.964;2022-11-20T16:03:37;24.20;41.50
46932;DHT22;32670;51.464;11.964;2022-11-20T16:06:02;24.20;41.20
46932;DHT22;32670;51.464;11.964;2022-11-20T16:08:28;24.20;41.20
46932;DHT22;32670;51.464;11.964;2022-11-20T16:10:53;24.20;41.10
46932;DHT22;32670;51.464;11.964;2022-11-20T16:13:19;24.20;41.10
46932;DHT22;32670;51.464;11.964;2022-11-20T16:16:05;24.20;41.10
46932;DHT22;32670;51.464;11.964;2022-11-20T16:18:32;24.20;41.70
46932;DHT22;32670;51.464;11.964;2022-11-20T16:20:58;24.20;41.20
46932;DHT22;32670;51.464;11.964;2022-11-20T16:23:24;24.10;41.10
46932;DHT22;32670;51.464;11.964;2022-11-20T16:25:50;24.20;41.30
46932;DHT22;32670;51.464;11.964;2022-11-20T16:28:16;24.10;41.20
46932;DHT22;32670;51.464;11.964;2022-11-20T16:30:42;24.10;41.40
46932;DHT22;32670;51.464;11.964;2022-11-20T16:33:13;24.10;41.50
46932;DHT22;32670;51.464;11.964;2022-11-20T16:35:39;24.10;41.60
46932;DHT22;32670;51.464;11.964;2022-11-20T16:38:04;24.10;43.00
46932;DHT22;32670;51.464;11.964;2022-11-20T16:40:30;24.10;43.10
46932;DHT22;32670;51.464;11.964;2022-11-20T16:42:55;24.10;42.90
46932;DHT22;32670;51.464;11.964;2022-11-20T16:45:22;24.10;42.40